sensor_id;sensor_type;location;lat;lon;timestamp;P1;durP1;ratioP1;P2;durP2;ratioP2
2934;SDS011;2462;51.456;7.248;2023-05-07T00:01:42;1.73;;;1.63;;
2934;SDS011;2462;51.456;7.248;2023-05-07T00:04:08;3.07;;;2.07;;
2934;SDS011;2462;51.456;7.248;2023-05-07T00:06:33;2.17;;;1.40;;
2934;SDS011;2462;51.456;7.248;2023-05-07T00:08:59;1.80;;;1.60;;
2934;SDS011;2462;51.456;7.248;2023-05-07T00:11:25;1.87;;;1.70;;
2934;SDS011;2462;51.456;7.248;2023-05-07T00:13:51;1.70;;;1.60;;
2934;SDS011;2462;51.456;7.248;2023-05-07T00:16:17;2.13;;;1.70;;
2934;SDS011;2462;51.456;7.248;2023-05-07T00:18:43;2.03;;;1.83;;
2934;SDS011;2462;51.456;7.248;2023-05-07T00:21:10;1.80;;;1.60;;
2934;SDS011;2462;51.456;7.248;2023-05-07T00:23:35;2.07;;;1.67;;
2934;SDS011;2462;51.456;7.248;2023-05-07T00:26:01;2.40;;;1.93;;
2934;SDS011;2462;51.456;7.248;2023-05-07T00:28:27;2.57;;;1.63;;
2934;SDS011;2462;51.456;7.248;2023-05-07T00:30:52;2.70;;;1.93;;
2934;SDS011;2462;51.456;7.248;2023-05-07T00:33:18;2.03;;;1.87;;
2934;SDS011;2462;51.456;7.248;2023-05-07T00:35:45;1.87;;;1.70;;
2934;SDS011;2462;51.456;7.248;2023-05-07T00:38:10;1.70;;;1.60;;
2934;SDS011;2462;51.456;7.248;2023-05-07T00:40:36;2.70;;;1.53;;
2934;SDS011;2462;51.456;7.248;2023-05-07T00:43:01;1.63;;;1.53;;
2934;SDS011;2462;51.456;7.248;2023-05-07T00:45:27;2.60;;;1.80;;
2934;SDS011;2462;51.456;7.248;2023-05-07T00:47:59;2.27;;;1.80;;
2934;SDS011;2462;51.456;7.248;2023-05-07T00:50:26;2.50;;;2.00;;
2934;SDS011;2462;51.456;7.248;2023-05-07T00:52:53;2.60;;;1.90;;
2934;SDS011;2462;51.456;7.248;2023-05-07T00:55:19;1.60;;;1.50;;
2934;SDS011;2462;51.456;7.248;2023-05-07T00:57:46;2.23;;;2.03;;
2934;SDS011;2462;51.456;7.248;2023-05-07T01:00:12;2.20;;;1.87;;
2934;SDS011;2462;51.456;7.248;2023-05-07T01:02:38;2.23;;;1.60;;
2934;SDS011;2462;51.456;7.248;2023-05-07T01:05:04;1.77;;;1.67;;
2934;SDS011;2462;51.456;7.248;2023-05-07T01:07:32;2.57;;;1.80;;
2934;SDS011;2462;51.456;7.248;2023-05-07T01:09:59;2.90;;;2.10;;
2934;SDS011;2462;51.456;7.248;2023-05-07T01:12:26;2.27;;;1.90;;
2934;SDS011;2462;51.456;7.248;2023-05-07T01:14:52;2.43;;;2.17;;
2934;SDS011;2462;51.456;7.248;2023-05-07T01:17:18;1.70;;;1.60;;
2934;SDS011;2462;51.456;7.248;2023-05-07T01:19:44;2.20;;;2.00;;
2934;SDS011;2462;51.456;7.248;2023-05-07T01:22:10;2.03;;;1.90;;
2934;SDS011;2462;51.456;7.248;2023-05-07T01:24:36;2.00;;;1.80;;
2934;SDS011;2462;51.456;7.248;2023-05-07T01:27:02;2.30;;;2.10;;
2934;SDS011;2462;51.456;7.248;2023-05-07T01:29:28;2.30;;;2.10;;
2934;SDS011;2462;51.456;7.248;2023-05-07T01:31:54;2.30;;;2.10;;
2934;SDS011;2462;51.456;7.248;2023-05-07T01:34:22;2.33;;;2.10;;
2934;SDS011;2462;51.456;7.248;2023-05-07T01:36:50;2.53;;;2.30;;
2934;SDS011;2462;51.456;7.248;2023-05-07T01:39:20;2.23;;;2.03;;
2934;SDS011;2462;51.456;7.248;2023-05-07T01:41:48;1.90;;;1.70;;
2934;SDS011;2462;51.456;7.248;2023-05-07T01:44:14;2.57;;;2.13;;
2934;SDS011;2462;51.456;7.248;2023-05-07T01:46:40;2.57;;;2.33;;
2934;SDS011;2462;51.456;7.248;2023-05-07T01:49:05;2.90;;;2.20;;
2934;SDS011;2462;51.456;7.248;2023-05-07T01:51:31;2.47;;;2.27;;
2934;SDS011;2462;51.456;7.248;2023-05-07T01:53:57;1.70;;;1.60;;
2934;SDS011;2462;51.456;7.248;2023-05-07T01:56:23;1.93;;;1.80;;
2934;SDS011;2462;51.456;7.248;2023-05-07T01:58:50;2.50;;;2.30;;
2934;SDS011;2462;51.456;7.248;2023-05-07T02:01:16;2.43;;;2.00;;
2934;SDS011;2462;51.456;7.248;2023-05-07T02:03:43;4.30;;;2.50;;
2934;SDS011;2462;51.456;7.248;2023-05-07T02:06:08;2.83;;;2.20;;
2934;SDS011;2462;51.456;7.248;2023-05-07T02:08:34;2.53;;;2.30;;
2934;SDS011;2462;51.456;7.248;2023-05-07T02:11:00;2.50;;;2.30;;
2934;SDS011;2462;51.456;7.248;2023-05-07T02:13:29;3.03;;;2.10;;
2934;SDS011;2462;51.456;7.248;2023-05-07T02:15:57;3.07;;;2.77;;
2934;SDS011;2462;51.456;7.248;2023-05-07T02:18:22;2.97;;;2.40;;
2934;SDS011;2462;51.456;7.248;2023-05-07T02:20:48;2.40;;;2.20;;
2934;SDS011;2462;51.456;7.248;2023-05-07T02:23:13;2.60;;;2.40;;
2934;SDS011;2462;51.456;7.248;2023-05-07T02:25:39;2.77;;;2.50;;
2934;SDS011;2462;51.456;7.248;2023-05-07T02:28:05;4.00;;;2.80;;
2934;SDS011;2462;51.456;7.248;2023-05-07T02:30:31;2.73;;;2.53;;
2934;SDS011;2462;51.456;7.248;2023-05-07T02:32:57;2.50;;;2.30;;
2934;SDS011;2462;51.456;7.248;2023-05-07T02:35:24;2.20;;;2.00;;
2934;SDS011;2462;51.456;7.248;2023-05-07T02:37:50;2.50;;;2.30;;
2934;SDS011;2462;51.456;7.248;2023-05-07T02:40:15;2.77;;;2.50;;
2934;SDS011;2462;51.456;7.248;2023-05-07T02:42:41;2.73;;;2.53;;
2934;SDS011;2462;51.456;7.248;2023-05-07T02:45:06;2.43;;;2.23;;
2934;SDS011;2462;51.456;7.248;2023-05-07T02:47:32;2.00;;;1.90;;
2934;SDS011;2462;51.456;7.248;2023-05-07T02:49:58;3.20;;;2.77;;
2934;SDS011;2462;51.456;7.248;2023-05-07T02:52:23;2.37;;;2.03;;
2934;SDS011;2462;51.456;7.248;2023-05-07T02:54:49;2.23;;;2.03;;
2934;SDS011;2462;51.456;7.248;2023-05-07T02:57:14;2.60;;;2.13;;
2934;SDS011;2462;51.456;7.248;2023-05-07T02:59:40;2.97;;;2.67;;
2934;SDS011;2462;51.456;7.248;2023-05-07T03:02:06;3.13;;;2.60;;
2934;SDS011;2462;51.456;7.248;2023-05-07T03:04:31;4.20;;;3.00;;
2934;SDS011;2462;51.456;7.248;2023-05-07T03:06:57;2.73;;;2.40;;
2934;SDS011;2462;51.456;7.248;2023-05-07T03:09:22;2.93;;;2.67;;
2934;SDS011;2462;51.456;7.248;2023-05-07T03:11:48;2.30;;;2.10;;
2934;SDS011;2462;51.456;7.248;2023-05-07T03:14:14;2.53;;;2.33;;
2934;SDS011;2462;51.456;7.248;2023-05-07T03:16:39;2.50;;;2.30;;
2934;SDS011;2462;51.456;7.248;2023-05-07T03:19:05;4.47;;;2.60;;
2934;SDS011;2462;51.456;7.248;2023-05-07T03:21:30;2.87;;;2.67;;
2934;SDS011;2462;51.456;7.248;2023-05-07T03:23:58;6.00;;;2.57;;
2934;SDS011;2462;51.456;7.248;2023-05-07T03:26:24;2.70;;;2.50;;
2934;SDS011;2462;51.456;7.248;2023-05-07T03:28:50;2.60;;;2.40;;
2934;SDS011;2462;51.456;7.248;2023-05-07T03:31:15;4.13;;;2.40;;
2934;SDS011;2462;51.456;7.248;2023-05-07T03:33:51;3.20;;;2.83;;
2934;SDS011;2462;51.456;7.248;2023-05-07T03:36:18;3.00;;;2.00;;
2934;SDS011;2462;51.456;7.248;2023-05-07T03:38:43;2.50;;;2.30;;
2934;SDS011;2462;51.456;7.248;2023-05-07T03:41:09;2.40;;;2.20;;
2934;SDS011;2462;51.456;7.248;2023-05-07T03:43:34;3.30;;;2.80;;
2934;SDS011;2462;51.456;7.248;2023-05-07T03:46:00;2.50;;;2.30;;
2934;SDS011;2462;51.456;7.248;2023-05-07T03:48:25;2.27;;;2.10;;
2934;SDS011;2462;51.456;7.248;2023-05-07T03:50:51;3.20;;;2.73;;
2934;SDS011;2462;51.456;7.248;2023-05-07T03:53:16;2.50;;;2.30;;
2934;SDS011;2462;51.456;7.248;2023-05-07T03:55:42;2.70;;;2.30;;
2934;SDS011;2462;51.456;7.248;2023-05-07T03:58:07;2.87;;;2.67;;
2934;SDS011;2462;51.456;7.248;2023-05-07T04:00:33;3.57;;;2.60;;
2934;SDS011;2462;51.456;7.248;2023-05-07T04:03:03;2.90;;;2.70;;
2934;SDS011;2462;51.456;7.248;2023-05-07T04:05:29;3.30;;;2.60;;
2934;SDS011;2462;51.456;7.248;2023-05-07T04:07:55;3.20;;;2.90;;
2934;SDS011;2462;51.456;7.248;2023-05-07T04:10:22;5.77;;;3.03;;
2934;SDS011;2462;51.456;7.248;2023-05-07T04:12:47;3.40;;;3.10;;
2934;SDS011;2462;51.456;7.248;2023-05-07T04:15:13;3.57;;;3.27;;
2934;SDS011;2462;51.456;7.248;2023-05-07T04:17:39;3.83;;;3.50;;
2934;SDS011;2462;51.456;7.248;2023-05-07T04:20:06;4.33;;;3.50;;
2934;SDS011;2462;51.456;7.248;2023-05-07T04:22:33;3.33;;;3.00;;
2934;SDS011;2462;51.456;7.248;2023-05-07T04:24:59;3.50;;;3.30;;
2934;SDS011;2462;51.456;7.248;2023-05-07T04:27:25;5.53;;;4.10;;
2934;SDS011;2462;51.456;7.248;2023-05-07T04:29:51;4.03;;;3.40;;
2934;SDS011;2462;51.456;7.248;2023-05-07T04:32:20;3.53;;;3.20;;
2934;SDS011;2462;51.456;7.248;2023-05-07T04:34:46;3.50;;;3.20;;
2934;SDS011;2462;51.456;7.248;2023-05-07T04:37:11;4.80;;;3.27;;
2934;SDS011;2462;51.456;7.248;2023-05-07T04:39:37;3.83;;;3.53;;
2934;SDS011;2462;51.456;7.248;2023-05-07T04:42:02;4.67;;;3.83;;
2934;SDS011;2462;51.456;7.248;2023-05-07T04:44:28;4.67;;;4.27;;
2934;SDS011;2462;51.456;7.248;2023-05-07T04:46:55;4.20;;;3.80;;
2934;SDS011;2462;51.456;7.248;2023-05-07T04:49:21;3.63;;;3.33;;
2934;SDS011;2462;51.456;7.248;2023-05-07T04:51:47;3.37;;;3.07;;
2934;SDS011;2462;51.456;7.248;2023-05-07T04:54:12;3.87;;;3.57;;
2934;SDS011;2462;51.456;7.248;2023-05-07T04:56:38;3.67;;;3.37;;
2934;SDS011;2462;51.456;7.248;2023-05-07T04:59:03;6.40;;;3.50;;
2934;SDS011;2462;51.456;7.248;2023-05-07T05:01:29;4.07;;;3.67;;
2934;SDS011;2462;51.456;7.248;2023-05-07T05:03:55;4.17;;;3.77;;
2934;SDS011;2462;51.456;7.248;2023-05-07T05:06:20;4.50;;;4.10;;
2934;SDS011;2462;51.456;7.248;2023-05-07T05:08:46;4.17;;;3.80;;
2934;SDS011;2462;51.456;7.248;2023-05-07T05:11:11;4.40;;;3.93;;
2934;SDS011;2462;51.456;7.248;2023-05-07T05:13:37;3.80;;;3.50;;
2934;SDS011;2462;51.456;7.248;2023-05-07T05:16:02;3.97;;;3.43;;
2934;SDS011;2462;51.456;7.248;2023-05-07T05:18:28;4.43;;;3.93;;
2934;SDS011;2462;51.456;7.248;2023-05-07T05:20:53;4.47;;;4.07;;
2934;SDS011;2462;51.456;7.248;2023-05-07T05:23:19;4.80;;;3.90;;
2934;SDS011;2462;51.456;7.248;2023-05-07T05:25:45;3.23;;;3.03;;
2934;SDS011;2462;51.456;7.248;2023-05-07T05:28:10;4.23;;;3.93;;
2934;SDS011;2462;51.456;7.248;2023-05-07T05:30:36;3.80;;;3.50;;
2934;SDS011;2462;51.456;7.248;2023-05-07T05:33:01;4.00;;;3.70;;
2934;SDS011;2462;51.456;7.248;2023-05-07T05:35:27;4.50;;;3.90;;
2934;SDS011;2462;51.456;7.248;2023-05-07T05:37:53;3.77;;;3.47;;
2934;SDS011;2462;51.456;7.248;2023-05-07T05:40:18;3.60;;;3.30;;
2934;SDS011;2462;51.456;7.248;2023-05-07T05:42:44;4.60;;;4.20;;
2934;SDS011;2462;51.456;7.248;2023-05-07T05:45:09;4.40;;;3.87;;
2934;SDS011;2462;51.456;7.248;2023-05-07T05:47:35;3.90;;;3.37;;
2934;SDS011;2462;51.456;7.248;2023-05-07T05:50:00;3.50;;;3.23;;
2934;SDS011;2462;51.456;7.248;2023-05-07T05:52:26;3.23;;;2.93;;
2934;SDS011;2462;51.456;7.248;2023-05-07T05:54:51;3.50;;;3.20;;
2934;SDS011;2462;51.456;7.248;2023-05-07T05:57:18;3.33;;;3.03;;
2934;SDS011;2462;51.456;7.248;2023-05-07T05:59:43;3.47;;;3.17;;
2934;SDS011;2462;51.456;7.248;2023-05-07T06:02:09;3.80;;;3.40;;
2934;SDS011;2462;51.456;7.248;2023-05-07T06:04:35;3.20;;;2.90;;
2934;SDS011;2462;51.456;7.248;2023-05-07T06:07:00;3.60;;;3.30;;
2934;SDS011;2462;51.456;7.248;2023-05-07T06:09:26;3.33;;;3.07;;
2934;SDS011;2462;51.456;7.248;2023-05-07T06:11:51;3.30;;;3.00;;
2934;SDS011;2462;51.456;7.248;2023-05-07T06:14:17;4.00;;;3.17;;
2934;SDS011;2462;51.456;7.248;2023-05-07T06:16:43;3.17;;;2.90;;
2934;SDS011;2462;51.456;7.248;2023-05-07T06:19:09;3.47;;;3.17;;
2934;SDS011;2462;51.456;7.248;2023-05-07T06:21:34;3.70;;;3.33;;
2934;SDS011;2462;51.456;7.248;2023-05-07T06:24:00;2.50;;;2.30;;
2934;SDS011;2462;51.456;7.248;2023-05-07T06:26:25;2.20;;;2.03;;
2934;SDS011;2462;51.456;7.248;2023-05-07T06:28:51;3.17;;;2.53;;
2934;SDS011;2462;51.456;7.248;2023-05-07T06:31:19;2.80;;;2.17;;
2934;SDS011;2462;51.456;7.248;2023-05-07T06:33:45;4.50;;;1.70;;
2934;SDS011;2462;51.456;7.248;2023-05-07T06:36:11;2.60;;;1.67;;
2934;SDS011;2462;51.456;7.248;2023-05-07T06:38:37;1.47;;;1.30;;
2934;SDS011;2462;51.456;7.248;2023-05-07T06:41:02;1.70;;;1.60;;
2934;SDS011;2462;51.456;7.248;2023-05-07T06:43:30;2.60;;;2.27;;
2934;SDS011;2462;51.456;7.248;2023-05-07T06:45:56;1.67;;;1.57;;
2934;SDS011;2462;51.456;7.248;2023-05-07T06:48:21;1.60;;;1.50;;
2934;SDS011;2462;51.456;7.248;2023-05-07T06:50:47;1.90;;;1.70;;
2934;SDS011;2462;51.456;7.248;2023-05-07T06:53:12;2.20;;;2.00;;
2934;SDS011;2462;51.456;7.248;2023-05-07T06:55:38;2.30;;;2.10;;
2934;SDS011;2462;51.456;7.248;2023-05-07T06:58:03;2.60;;;2.03;;
2934;SDS011;2462;51.456;7.248;2023-05-07T07:00:29;2.43;;;1.90;;
2934;SDS011;2462;51.456;7.248;2023-05-07T07:02:54;1.70;;;1.60;;
2934;SDS011;2462;51.456;7.248;2023-05-07T07:05:20;2.43;;;2.13;;
2934;SDS011;2462;51.456;7.248;2023-05-07T07:07:46;2.30;;;2.10;;
2934;SDS011;2462;51.456;7.248;2023-05-07T07:10:18;3.70;;;1.80;;
2934;SDS011;2462;51.456;7.248;2023-05-07T07:12:47;2.70;;;1.57;;
2934;SDS011;2462;51.456;7.248;2023-05-07T07:15:15;1.90;;;1.63;;
2934;SDS011;2462;51.456;7.248;2023-05-07T07:17:41;2.63;;;2.07;;
2934;SDS011;2462;51.456;7.248;2023-05-07T07:20:07;2.53;;;1.80;;
2934;SDS011;2462;51.456;7.248;2023-05-07T07:22:33;2.37;;;2.03;;
2934;SDS011;2462;51.456;7.248;2023-05-07T07:24:58;1.90;;;1.70;;
2934;SDS011;2462;51.456;7.248;2023-05-07T07:27:24;2.10;;;1.97;;
2934;SDS011;2462;51.456;7.248;2023-05-07T07:29:50;1.53;;;1.43;;
2934;SDS011;2462;51.456;7.248;2023-05-07T07:32:16;6.60;;;1.60;;
2934;SDS011;2462;51.456;7.248;2023-05-07T07:34:41;1.70;;;1.60;;
2934;SDS011;2462;51.456;7.248;2023-05-07T07:37:07;2.53;;;1.80;;
2934;SDS011;2462;51.456;7.248;2023-05-07T07:39:32;1.43;;;1.33;;
2934;SDS011;2462;51.456;7.248;2023-05-07T07:41:58;3.27;;;1.63;;
2934;SDS011;2462;51.456;7.248;2023-05-07T07:44:24;2.57;;;1.80;;
2934;SDS011;2462;51.456;7.248;2023-05-07T07:46:50;1.50;;;1.40;;
2934;SDS011;2462;51.456;7.248;2023-05-07T07:49:16;5.60;;;1.60;;
2934;SDS011;2462;51.456;7.248;2023-05-07T07:51:42;2.20;;;1.70;;
2934;SDS011;2462;51.456;7.248;2023-05-07T07:54:07;1.70;;;1.40;;
2934;SDS011;2462;51.456;7.248;2023-05-07T07:56:33;2.67;;;1.87;;
2934;SDS011;2462;51.456;7.248;2023-05-07T07:58:59;2.47;;;1.60;;
2934;SDS011;2462;51.456;7.248;2023-05-07T08:01:25;3.63;;;1.33;;
2934;SDS011;2462;51.456;7.248;2023-05-07T08:03:50;3.63;;;1.50;;
2934;SDS011;2462;51.456;7.248;2023-05-07T08:06:16;1.43;;;1.33;;
2934;SDS011;2462;51.456;7.248;2023-05-07T08:08:42;1.40;;;1.30;;
2934;SDS011;2462;51.456;7.248;2023-05-07T08:11:08;2.38;;;1.73;;
2934;SDS011;2462;51.456;7.248;2023-05-07T08:13:33;3.87;;;1.33;;
2934;SDS011;2462;51.456;7.248;2023-05-07T08:15:59;1.77;;;1.23;;
2934;SDS011;2462;51.456;7.248;2023-05-07T08:18:25;2.70;;;1.50;;
2934;SDS011;2462;51.456;7.248;2023-05-07T08:20:51;3.50;;;1.70;;
2934;SDS011;2462;51.456;7.248;2023-05-07T08:23:16;3.87;;;1.60;;
2934;SDS011;2462;51.456;7.248;2023-05-07T08:25:42;1.77;;;1.60;;
2934;SDS011;2462;51.456;7.248;2023-05-07T08:28:08;1.73;;;1.27;;
2934;SDS011;2462;51.456;7.248;2023-05-07T08:30:33;1.87;;;1.30;;
2934;SDS011;2462;51.456;7.248;2023-05-07T08:32:59;1.93;;;1.63;;
2934;SDS011;2462;51.456;7.248;2023-05-07T08:35:25;1.70;;;1.50;;
2934;SDS011;2462;51.456;7.248;2023-05-07T08:37:52;5.23;;;1.80;;
2934;SDS011;2462;51.456;7.248;2023-05-07T08:40:17;2.37;;;1.40;;
2934;SDS011;2462;51.456;7.248;2023-05-07T08:42:43;1.67;;;1.47;;
2934;SDS011;2462;51.456;7.248;2023-05-07T08:45:10;3.50;;;1.50;;
2934;SDS011;2462;51.456;7.248;2023-05-07T08:47:40;2.60;;;1.60;;
2934;SDS011;2462;51.456;7.248;2023-05-07T08:50:11;2.17;;;1.60;;
2934;SDS011;2462;51.456;7.248;2023-05-07T08:52:37;1.90;;;1.30;;
2934;SDS011;2462;51.456;7.248;2023-05-07T08:55:04;2.60;;;1.63;;
2934;SDS011;2462;51.456;7.248;2023-05-07T08:57:32;4.00;;;1.33;;
2934;SDS011;2462;51.456;7.248;2023-05-07T08:59:57;1.40;;;1.20;;
2934;SDS011;2462;51.456;7.248;2023-05-07T09:02:23;3.20;;;2.30;;
2934;SDS011;2462;51.456;7.248;2023-05-07T09:04:48;2.03;;;1.83;;
2934;SDS011;2462;51.456;7.248;2023-05-07T09:07:14;2.63;;;1.60;;
2934;SDS011;2462;51.456;7.248;2023-05-07T09:09:40;1.87;;;1.50;;
2934;SDS011;2462;51.456;7.248;2023-05-07T09:12:05;3.73;;;1.60;;
2934;SDS011;2462;51.456;7.248;2023-05-07T09:14:31;2.20;;;1.53;;
2934;SDS011;2462;51.456;7.248;2023-05-07T09:16:56;3.17;;;1.67;;
2934;SDS011;2462;51.456;7.248;2023-05-07T09:19:22;6.10;;;1.80;;
2934;SDS011;2462;51.456;7.248;2023-05-07T09:21:49;3.07;;;1.50;;
2934;SDS011;2462;51.456;7.248;2023-05-07T09:24:15;2.00;;;1.50;;
2934;SDS011;2462;51.456;7.248;2023-05-07T09:26:41;1.60;;;1.40;;
2934;SDS011;2462;51.456;7.248;2023-05-07T09:29:07;1.90;;;1.60;;
2934;SDS011;2462;51.456;7.248;2023-05-07T09:31:37;1.90;;;1.70;;
2934;SDS011;2462;51.456;7.248;2023-05-07T09:34:04;1.57;;;1.37;;
2934;SDS011;2462;51.456;7.248;2023-05-07T09:36:31;1.77;;;1.33;;
2934;SDS011;2462;51.456;7.248;2023-05-07T09:38:59;1.63;;;1.53;;
2934;SDS011;2462;51.456;7.248;2023-05-07T09:41:25;2.03;;;1.33;;
2934;SDS011;2462;51.456;7.248;2023-05-07T09:43:54;2.43;;;1.60;;
2934;SDS011;2462;51.456;7.248;2023-05-07T09:46:21;10.93;;;4.20;;
2934;SDS011;2462;51.456;7.248;2023-05-07T09:48:52;10.40;;;5.17;;
2934;SDS011;2462;51.456;7.248;2023-05-07T09:51:36;3.60;;;3.30;;
2934;SDS011;2462;51.456;7.248;2023-05-07T09:54:08;3.33;;;3.03;;
2934;SDS011;2462;51.456;7.248;2023-05-07T09:56:34;5.70;;;2.80;;
2934;SDS011;2462;51.456;7.248;2023-05-07T09:59:02;4.30;;;2.87;;
2934;SDS011;2462;51.456;7.248;2023-05-07T10:01:29;5.30;;;2.97;;
2934;SDS011;2462;51.456;7.248;2023-05-07T10:03:56;3.77;;;3.13;;
2934;SDS011;2462;51.456;7.248;2023-05-07T10:06:23;3.57;;;2.73;;
2934;SDS011;2462;51.456;7.248;2023-05-07T10:08:51;3.13;;;2.83;;
2934;SDS011;2462;51.456;7.248;2023-05-07T10:11:17;2.90;;;2.70;;
2934;SDS011;2462;51.456;7.248;2023-05-07T10:13:44;3.95;;;2.72;;
2934;SDS011;2462;51.456;7.248;2023-05-07T10:16:12;4.23;;;2.63;;
2934;SDS011;2462;51.456;7.248;2023-05-07T10:18:39;5.20;;;2.83;;
2934;SDS011;2462;51.456;7.248;2023-05-07T10:21:24;3.53;;;2.33;;
2934;SDS011;2462;51.456;7.248;2023-05-07T10:23:58;3.17;;;2.87;;
2934;SDS011;2462;51.456;7.248;2023-05-07T10:26:30;3.10;;;2.67;;
2934;SDS011;2462;51.456;7.248;2023-05-07T10:29:05;3.87;;;2.47;;
2934;SDS011;2462;51.456;7.248;2023-05-07T10:34:11;9.60;;;3.93;;
2934;SDS011;2462;51.456;7.248;2023-05-07T10:36:41;7.80;;;3.23;;
2934;SDS011;2462;51.456;7.248;2023-05-07T10:39:07;5.80;;;3.40;;
2934;SDS011;2462;51.456;7.248;2023-05-07T10:41:33;3.80;;;3.50;;
2934;SDS011;2462;51.456;7.248;2023-05-07T10:43:59;6.00;;;3.93;;
2934;SDS011;2462;51.456;7.248;2023-05-07T10:46:27;5.33;;;3.43;;
2934;SDS011;2462;51.456;7.248;2023-05-07T10:51:31;3.77;;;2.83;;
2934;SDS011;2462;51.456;7.248;2023-05-07T10:54:17;5.00;;;2.90;;
2934;SDS011;2462;51.456;7.248;2023-05-07T10:56:44;7.97;;;4.10;;
2934;SDS011;2462;51.456;7.248;2023-05-07T11:01:56;3.83;;;3.50;;
2934;SDS011;2462;51.456;7.248;2023-05-07T11:04:27;3.63;;;3.33;;
2934;SDS011;2462;51.456;7.248;2023-05-07T11:07:09;4.00;;;3.60;;
2934;SDS011;2462;51.456;7.248;2023-05-07T11:15:04;3.67;;;3.37;;
2934;SDS011;2462;51.456;7.248;2023-05-07T11:17:31;7.37;;;3.70;;
2934;SDS011;2462;51.456;7.248;2023-05-07T11:19:59;5.83;;;3.17;;
2934;SDS011;2462;51.456;7.248;2023-05-07T11:25:01;4.33;;;3.47;;
2934;SDS011;2462;51.456;7.248;2023-05-07T11:27:28;3.50;;;3.20;;
2934;SDS011;2462;51.456;7.248;2023-05-07T11:29:54;6.10;;;4.60;;
2934;SDS011;2462;51.456;7.248;2023-05-07T11:32:26;7.20;;;5.07;;
2934;SDS011;2462;51.456;7.248;2023-05-07T11:34:54;4.87;;;4.47;;
2934;SDS011;2462;51.456;7.248;2023-05-07T11:37:21;10.23;;;5.43;;
2934;SDS011;2462;51.456;7.248;2023-05-07T11:39:48;5.63;;;5.13;;
2934;SDS011;2462;51.456;7.248;2023-05-07T11:42:31;7.20;;;5.30;;
2934;SDS011;2462;51.456;7.248;2023-05-07T11:45:00;7.63;;;4.73;;
2934;SDS011;2462;51.456;7.248;2023-05-07T11:47:26;6.30;;;5.70;;
2934;SDS011;2462;51.456;7.248;2023-05-07T11:49:55;5.50;;;4.90;;
2934;SDS011;2462;51.456;7.248;2023-05-07T11:52:22;5.80;;;5.20;;
2934;SDS011;2462;51.456;7.248;2023-05-07T11:54:52;7.23;;;6.53;;
2934;SDS011;2462;51.456;7.248;2023-05-07T11:57:23;6.63;;;6.03;;
2934;SDS011;2462;51.456;7.248;2023-05-07T11:59:53;6.53;;;5.93;;
2934;SDS011;2462;51.456;7.248;2023-05-07T12:02:23;15.67;;;5.67;;
2934;SDS011;2462;51.456;7.248;2023-05-07T12:04:52;9.83;;;6.70;;
2934;SDS011;2462;51.456;7.248;2023-05-07T12:07:18;6.97;;;6.20;;
2934;SDS011;2462;51.456;7.248;2023-05-07T12:09:44;8.10;;;6.50;;
2934;SDS011;2462;51.456;7.248;2023-05-07T12:12:10;6.70;;;6.10;;
2934;SDS011;2462;51.456;7.248;2023-05-07T12:14:40;6.00;;;5.40;;
2934;SDS011;2462;51.456;7.248;2023-05-07T12:17:10;8.50;;;5.60;;
2934;SDS011;2462;51.456;7.248;2023-05-07T12:19:37;6.47;;;5.77;;
2934;SDS011;2462;51.456;7.248;2023-05-07T12:22:03;5.97;;;5.37;;
2934;SDS011;2462;51.456;7.248;2023-05-07T12:24:41;7.70;;;5.60;;
2934;SDS011;2462;51.456;7.248;2023-05-07T12:27:14;5.67;;;5.17;;
2934;SDS011;2462;51.456;7.248;2023-05-07T12:29:43;7.73;;;6.97;;
2934;SDS011;2462;51.456;7.248;2023-05-07T12:32:15;6.00;;;5.40;;
2934;SDS011;2462;51.456;7.248;2023-05-07T12:34:41;5.53;;;5.03;;
2934;SDS011;2462;51.456;7.248;2023-05-07T12:37:07;5.50;;;4.97;;
2934;SDS011;2462;51.456;7.248;2023-05-07T12:39:33;6.20;;;5.60;;
2934;SDS011;2462;51.456;7.248;2023-05-07T12:41:59;7.30;;;6.33;;
2934;SDS011;2462;51.456;7.248;2023-05-07T12:44:25;7.30;;;6.53;;
2934;SDS011;2462;51.456;7.248;2023-05-07T12:46:53;11.00;;;6.77;;
2934;SDS011;2462;51.456;7.248;2023-05-07T12:49:19;7.37;;;6.57;;
2934;SDS011;2462;51.456;7.248;2023-05-07T12:51:46;9.80;;;7.13;;
2934;SDS011;2462;51.456;7.248;2023-05-07T12:54:13;6.90;;;6.20;;
2934;SDS011;2462;51.456;7.248;2023-05-07T12:56:39;6.33;;;5.83;;
2934;SDS011;2462;51.456;7.248;2023-05-07T12:59:05;6.30;;;5.70;;
2934;SDS011;2462;51.456;7.248;2023-05-07T13:01:31;7.97;;;5.50;;
2934;SDS011;2462;51.456;7.248;2023-05-07T13:04:02;7.03;;;6.33;;
2934;SDS011;2462;51.456;7.248;2023-05-07T13:06:31;6.83;;;5.30;;
2934;SDS011;2462;51.456;7.248;2023-05-07T13:08:57;14.90;;;5.90;;
2934;SDS011;2462;51.456;7.248;2023-05-07T13:11:22;9.63;;;5.77;;
2934;SDS011;2462;51.456;7.248;2023-05-07T13:13:48;7.43;;;5.83;;
2934;SDS011;2462;51.456;7.248;2023-05-07T13:16:13;6.23;;;5.63;;
2934;SDS011;2462;51.456;7.248;2023-05-07T13:18:39;6.63;;;5.73;;
2934;SDS011;2462;51.456;7.248;2023-05-07T13:21:06;7.77;;;6.37;;
2934;SDS011;2462;51.456;7.248;2023-05-07T13:23:31;6.77;;;6.17;;
2934;SDS011;2462;51.456;7.248;2023-05-07T13:25:57;6.47;;;5.87;;
2934;SDS011;2462;51.456;7.248;2023-05-07T13:28:23;5.97;;;5.37;;
2934;SDS011;2462;51.456;7.248;2023-05-07T13:30:49;5.80;;;5.30;;
2934;SDS011;2462;51.456;7.248;2023-05-07T13:33:16;6.17;;;5.47;;
2934;SDS011;2462;51.456;7.248;2023-05-07T13:35:42;7.17;;;5.53;;
2934;SDS011;2462;51.456;7.248;2023-05-07T13:38:08;7.07;;;5.73;;
2934;SDS011;2462;51.456;7.248;2023-05-07T13:40:33;9.33;;;4.90;;
2934;SDS011;2462;51.456;7.248;2023-05-07T13:42:59;5.27;;;4.73;;
2934;SDS011;2462;51.456;7.248;2023-05-07T13:45:28;5.03;;;4.13;;
2934;SDS011;2462;51.456;7.248;2023-05-07T13:47:55;6.57;;;3.80;;
2934;SDS011;2462;51.456;7.248;2023-05-07T13:50:21;4.13;;;3.73;;
2934;SDS011;2462;51.456;7.248;2023-05-07T13:52:47;8.18;;;4.00;;
2934;SDS011;2462;51.456;7.248;2023-05-07T13:55:16;4.60;;;4.10;;
2934;SDS011;2462;51.456;7.248;2023-05-07T13:57:42;5.40;;;4.37;;
2934;SDS011;2462;51.456;7.248;2023-05-07T14:00:08;5.60;;;3.80;;
2934;SDS011;2462;51.456;7.248;2023-05-07T14:02:34;7.87;;;4.33;;
2934;SDS011;2462;51.456;7.248;2023-05-07T14:05:00;6.43;;;4.00;;
2934;SDS011;2462;51.456;7.248;2023-05-07T14:07:25;5.77;;;4.97;;
2934;SDS011;2462;51.456;7.248;2023-05-07T14:09:51;8.83;;;4.50;;
2934;SDS011;2462;51.456;7.248;2023-05-07T14:12:16;6.03;;;5.40;;
2934;SDS011;2462;51.456;7.248;2023-05-07T14:14:42;5.57;;;4.90;;
2934;SDS011;2462;51.456;7.248;2023-05-07T14:17:07;9.23;;;5.17;;
2934;SDS011;2462;51.456;7.248;2023-05-07T14:19:33;12.50;;;6.10;;
2934;SDS011;2462;51.456;7.248;2023-05-07T14:21:59;10.33;;;5.10;;
2934;SDS011;2462;51.456;7.248;2023-05-07T14:24:24;18.00;;;5.07;;
2934;SDS011;2462;51.456;7.248;2023-05-07T14:26:50;15.23;;;5.60;;
2934;SDS011;2462;51.456;7.248;2023-05-07T14:29:16;10.37;;;5.37;;
2934;SDS011;2462;51.456;7.248;2023-05-07T14:31:43;15.83;;;5.30;;
2934;SDS011;2462;51.456;7.248;2023-05-07T14:34:10;42.33;;;6.80;;
2934;SDS011;2462;51.456;7.248;2023-05-07T14:36:35;23.90;;;5.20;;
2934;SDS011;2462;51.456;7.248;2023-05-07T14:39:01;22.43;;;5.57;;
2934;SDS011;2462;51.456;7.248;2023-05-07T14:41:27;12.63;;;5.17;;
2934;SDS011;2462;51.456;7.248;2023-05-07T14:43:52;29.17;;;6.93;;
2934;SDS011;2462;51.456;7.248;2023-05-07T14:46:18;20.83;;;6.27;;
2934;SDS011;2462;51.456;7.248;2023-05-07T14:48:44;51.00;;;8.20;;
2934;SDS011;2462;51.456;7.248;2023-05-07T14:51:11;29.90;;;6.20;;
2934;SDS011;2462;51.456;7.248;2023-05-07T14:53:37;36.67;;;8.23;;
2934;SDS011;2462;51.456;7.248;2023-05-07T14:56:02;34.33;;;6.90;;
2934;SDS011;2462;51.456;7.248;2023-05-07T14:58:28;44.03;;;7.23;;
2934;SDS011;2462;51.456;7.248;2023-05-07T15:00:54;26.20;;;6.40;;
2934;SDS011;2462;51.456;7.248;2023-05-07T15:03:20;29.27;;;5.77;;
2934;SDS011;2462;51.456;7.248;2023-05-07T15:05:46;27.03;;;4.73;;
2934;SDS011;2462;51.456;7.248;2023-05-07T15:08:12;23.97;;;6.30;;
2934;SDS011;2462;51.456;7.248;2023-05-07T15:10:37;20.33;;;5.80;;
2934;SDS011;2462;51.456;7.248;2023-05-07T15:13:06;15.83;;;5.80;;
2934;SDS011;2462;51.456;7.248;2023-05-07T15:15:32;15.57;;;5.17;;
2934;SDS011;2462;51.456;7.248;2023-05-07T15:17:58;13.23;;;5.43;;
2934;SDS011;2462;51.456;7.248;2023-05-07T15:20:25;23.97;;;5.53;;
2934;SDS011;2462;51.456;7.248;2023-05-07T15:22:50;19.27;;;5.80;;
2934;SDS011;2462;51.456;7.248;2023-05-07T15:25:16;17.90;;;5.80;;
2934;SDS011;2462;51.456;7.248;2023-05-07T15:27:41;14.33;;;5.40;;